createdAt,value
2018-10-12T00:01:26.183Z,99925.06
2018-10-12T00:03:55.230Z,99926.97
2018-10-12T00:06:24.603Z,99930.23
2018-10-12T00:08:53.546Z,99935.69
2018-10-12T00:11:22.390Z,99931.05
2018-10-12T00:13:51.922Z,99927.22
2018-10-12T00:16:20.899Z,99926.72
2018-10-12T00:18:49.760Z,99929.16
2018-10-12T00:21:18.688Z,99933.53
2018-10-12T00:23:47.524Z,99937.63
2018-10-12T00:26:16.590Z,99935.16
2018-10-12T00:28:45.997Z,99937.34
2018-10-12T00:31:14.889Z,99941.44
2018-10-12T00:33:44.032Z,99939.81
2018-10-12T00:36:12.979Z,99938.45
2018-10-12T00:38:42.043Z,99947.47
2018-10-12T00:41:11.027Z,99936.27
2018-10-12T00:43:39.896Z,99945.56
2018-10-12T00:46:08.961Z,99940.94
2018-10-12T00:48:37.893Z,99937.63
2018-10-12T00:51:06.842Z,99943.62
2018-10-12T00:53:36.334Z,99942.55
2018-10-12T00:56:05.554Z,99945.52
2018-10-12T00:58:34.561Z,99947.96
2018-10-12T01:01:03.698Z,99939.73
2018-10-12T01:03:32.729Z,99949.31
2018-10-12T01:06:01.949Z,99947.13
2018-10-12T01:08:31.422Z,99941.09
2018-10-12T01:11:00.316Z,99946.55
2018-10-12T01:13:29.333Z,99947.12
2018-10-12T01:15:58.197Z,99944.36
2018-10-12T01:18:27.722Z,99938.91
2018-10-12T01:20:56.693Z,99945.40
2018-10-12T01:23:25.669Z,99939.69
2018-10-12T01:25:54.596Z,99946.50
2018-10-12T01:28:23.787Z,99940.77
2018-10-12T01:30:52.646Z,99942.42
2018-10-12T01:33:21.647Z,99945.68
2018-10-12T01:35:50.705Z,99941.05
2018-10-12T01:38:19.652Z,99943.48
2018-10-12T01:40:48.596Z,99944.02
2018-10-12T01:43:17.747Z,99945.34
2018-10-12T01:45:46.697Z,99943.44
2018-10-12T01:48:16.537Z,99943.44
2018-10-12T01:50:45.561Z,99947.22
2018-10-12T01:53:14.508Z,99945.56
2018-10-12T01:55:43.896Z,99938.95
2018-10-12T01:58:12.968Z,99952.62
2018-10-12T02:00:42.089Z,99945.77
2018-10-12T02:03:11.652Z,99941.67
2018-10-12T02:05:40.586Z,99947.64
2018-10-12T02:08:09.723Z,99944.09
2018-10-12T02:10:39.641Z,99944.05
2018-10-12T02:13:08.493Z,99945.39
2018-10-12T02:15:39.266Z,99930.89
2018-10-12T02:18:08.975Z,99944.27
2018-10-12T02:20:37.945Z,99944.26
2018-10-12T02:23:07.248Z,99934.66
2018-10-12T02:25:37.098Z,99947.47
2018-10-12T02:28:06.088Z,99943.37
2018-10-12T02:30:35.143Z,99943.61
2018-10-12T02:33:03.943Z,99947.69
2018-10-12T02:35:32.973Z,99947.11
2018-10-12T02:38:02.541Z,99955.27
2018-10-12T02:40:31.897Z,99958.52
2018-10-12T02:43:00.923Z,99959.06
2018-10-12T02:45:30.079Z,99961.48
2018-10-12T02:47:59.172Z,99960.66
2018-10-12T02:50:28.104Z,99962.00
2018-10-12T02:52:57.103Z,99966.33
2018-10-12T02:55:25.996Z,99974.77
2018-10-12T02:57:55.038Z,99967.12
2018-10-12T03:00:23.978Z,99971.16
2018-10-12T03:02:53.140Z,99977.42
2018-10-12T03:05:22.084Z,99973.86
2018-10-12T03:07:52.234Z,99976.00
2018-10-12T03:10:21.226Z,99975.44
2018-10-12T03:12:50.263Z,99971.88
2018-10-12T03:15:19.283Z,99974.84
2018-10-12T03:17:48.233Z,99981.36
2018-10-12T03:20:17.292Z,99987.08
2018-10-12T03:22:46.606Z,99986.78
2018-10-12T03:25:15.714Z,99984.30
2018-10-12T03:27:55.653Z,99987.30
2018-10-12T03:30:24.778Z,99993.28
2018-10-12T03:32:53.831Z,100006.06
2018-10-12T03:35:22.856Z,100013.42
2018-10-12T03:37:51.950Z,100018.61
2018-10-12T03:40:21.290Z,100012.06
2018-10-12T03:42:50.311Z,100015.88
2018-10-12T03:45:20.118Z,100018.61
2018-10-12T03:47:49.282Z,100021.03
2018-10-12T03:50:18.972Z,100023.12
2018-10-12T03:52:48.176Z,100027.52
2018-10-12T03:55:17.083Z,100026.95
2018-10-12T03:57:46.069Z,100032.11
2018-10-12T04:00:14.978Z,100033.71
2018-10-12T04:02:43.978Z,100045.16
2018-10-12T04:05:13.306Z,100037.26
2018-10-12T04:07:42.338Z,100042.70
2018-10-12T04:10:11.474Z,100035.07
2018-10-12T04:12:40.766Z,100040.25
2018-10-12T04:15:09.951Z,100037.53
2018-10-12T04:17:39.228Z,100042.44
2018-10-12T04:20:08.484Z,100045.94
2018-10-12T04:22:37.402Z,100044.28
2018-10-12T04:25:06.738Z,100049.72
2018-10-12T04:27:35.757Z,100049.46
2018-10-12T04:30:05.031Z,100057.63
2018-10-12T04:32:34.442Z,100053.55
2018-10-12T04:35:03.927Z,100057.63
2018-10-12T04:37:32.866Z,100053.25
2018-10-12T04:40:15.652Z,100051.36
2018-10-12T04:42:44.575Z,100050.77
2018-10-12T04:45:13.679Z,100044.45
2018-10-12T04:47:42.632Z,100061.39
2018-10-12T04:50:11.723Z,100057.55
2018-10-12T04:52:40.710Z,100061.88
2018-10-12T04:55:10.346Z,100064.03
2018-10-12T04:57:39.535Z,100060.78
2018-10-12T05:00:08.836Z,100070.02
2018-10-12T05:02:37.881Z,100065.61
2018-10-12T05:05:07.146Z,100068.33
2018-10-12T05:07:36.654Z,100070.47
2018-10-12T05:10:05.820Z,100071.56
2018-10-12T05:12:34.915Z,100075.89
2018-10-12T05:15:08.733Z,100077.22
2018-10-12T05:17:38.225Z,100083.73
2018-10-12T05:20:07.213Z,100087.80
2018-10-12T05:22:36.213Z,100091.86
2018-10-12T05:25:05.073Z,100095.94
2018-10-12T05:27:34.167Z,100099.73
2018-10-12T05:30:03.380Z,100098.08
2018-10-12T05:32:33.012Z,100100.53
2018-10-12T05:35:02.274Z,100110.59
2018-10-12T05:37:31.108Z,100110.05
2018-10-12T05:40:00.169Z,100117.65
2018-10-12T05:42:29.515Z,100118.24
2018-10-12T05:44:58.657Z,100131.61
2018-10-12T05:47:27.718Z,100129.95
2018-10-12T05:50:04.481Z,100132.40
2018-10-12T05:52:34.203Z,100133.23
2018-10-12T05:55:03.524Z,100137.31
2018-10-12T05:57:34.495Z,100136.54
2018-10-12T06:00:03.521Z,100149.05
2018-10-12T06:02:32.914Z,100148.28
2018-10-12T06:05:02.298Z,100149.94
2018-10-12T06:07:31.370Z,100157.83
2018-10-12T06:10:00.736Z,100161.97
2018-10-12T06:12:29.819Z,100157.38
2018-10-12T06:14:58.874Z,100170.52
2018-10-12T06:17:28.275Z,100174.66
2018-10-12T06:19:58.322Z,100176.06
2018-10-12T06:22:27.290Z,100182.37
2018-10-12T06:24:56.258Z,100179.47
2018-10-12T06:27:25.199Z,100181.95
2018-10-12T06:29:54.221Z,100186.06
2018-10-12T06:32:23.115Z,100196.17
2018-10-12T06:34:52.173Z,100191.03
2018-10-12T06:37:21.146Z,100199.20
2018-10-12T06:39:50.107Z,100200.82
2018-10-12T06:42:19.210Z,100207.68
2018-10-12T06:44:48.112Z,100217.53
2018-10-12T06:47:17.079Z,100220.28
2018-10-12T06:49:46.243Z,100213.71
2018-10-12T06:52:16.281Z,100224.17
2018-10-12T06:54:45.236Z,100223.14
2018-10-12T06:57:14.844Z,100233.55
2018-10-12T06:59:43.744Z,100221.53
2018-10-12T07:02:16.779Z,100225.97
2018-10-12T07:04:46.607Z,100216.65
2018-10-12T07:07:16.139Z,100228.23
2018-10-12T07:09:45.359Z,100235.36
2018-10-12T07:12:15.052Z,100231.59
2018-10-12T07:14:44.223Z,100236.53
2018-10-12T07:17:13.090Z,100241.23
2018-10-12T07:19:43.254Z,100241.25
2018-10-12T07:22:12.010Z,100231.99
2018-10-12T07:24:41.846Z,100241.63
2018-10-12T07:27:11.325Z,100241.11
2018-10-12T07:29:40.486Z,100252.33
2018-10-12T07:32:09.603Z,100252.41
2018-10-12T07:34:38.664Z,100257.63
2018-10-12T07:37:08.247Z,100259.86
2018-10-12T07:39:37.371Z,100260.77
2018-10-12T07:42:06.586Z,100261.91
2018-10-12T07:44:36.022Z,100266.66
2018-10-12T07:47:04.994Z,100268.34
2018-10-12T07:49:33.993Z,100273.06
2018-10-12T07:52:03.042Z,100274.51
2018-10-12T07:54:31.970Z,100271.84
2018-10-12T07:57:05.444Z,100275.19
2018-10-12T07:59:34.362Z,100273.06
2018-10-12T08:02:03.354Z,100273.97
2018-10-12T08:04:32.273Z,100271.84
2018-10-12T08:07:01.281Z,100272.45
2018-10-12T08:09:30.254Z,100272.77
2018-10-12T08:11:59.516Z,100277.47
2018-10-12T08:14:28.480Z,100275.88
2018-10-12T08:16:57.400Z,100274.87
2018-10-12T08:19:26.515Z,100279.64
2018-10-12T08:21:56.483Z,100274.23
2018-10-12T08:24:25.509Z,100275.66
2018-10-12T08:26:54.505Z,100274.64
2018-10-12T08:29:25.200Z,100281.23
2018-10-12T08:31:54.313Z,100284.06
2018-10-12T08:34:23.806Z,100289.58
2018-10-12T08:36:52.638Z,100276.23
2018-10-12T08:39:21.690Z,100281.20
2018-10-12T08:41:51.374Z,100279.59
2018-10-12T08:44:20.391Z,100280.77
2018-10-12T08:46:49.331Z,100282.98
2018-10-12T08:49:18.223Z,100282.73
2018-10-12T08:51:47.167Z,100291.80
2018-10-12T08:54:16.211Z,100292.92
2018-10-12T08:56:45.379Z,100300.63
2018-10-12T08:59:14.354Z,100296.25
2018-10-12T09:01:43.346Z,100294.90
2018-10-12T09:04:12.550Z,100292.17
2018-10-12T09:06:41.482Z,100295.21
2018-10-12T09:09:11.464Z,100291.94
2018-10-12T09:11:41.063Z,100292.25
2018-10-12T09:14:10.368Z,100301.55
2018-10-12T09:16:39.302Z,100289.79
2018-10-12T09:19:08.739Z,100293.63
2018-10-12T09:21:37.726Z,100289.21
2018-10-12T09:24:07.997Z,100291.68
2018-10-12T09:26:37.036Z,100291.94
2018-10-12T09:29:05.998Z,100304.24
2018-10-12T09:31:35.087Z,100300.41
2018-10-12T09:34:04.136Z,100296.83
2018-10-12T09:36:33.097Z,100287.19
2018-10-12T09:39:02.157Z,100291.53
2018-10-12T09:41:30.914Z,100291.21
2018-10-12T09:44:00.477Z,100290.88
2018-10-12T09:46:29.451Z,100294.66
2018-10-12T09:48:58.490Z,100295.21
2018-10-12T09:51:27.466Z,100297.06
2018-10-12T09:53:57.158Z,100300.03
2018-10-12T09:56:26.125Z,100293.67
2018-10-12T09:58:55.995Z,100290.29
2018-10-12T10:01:30.036Z,100291.61
2018-10-12T10:04:04.187Z,100292.62
2018-10-12T10:06:33.219Z,100298.88
2018-10-12T10:09:03.349Z,100297.99
2018-10-12T10:11:32.559Z,100303.42
2018-10-12T10:14:01.626Z,100308.00
2018-10-12T10:16:30.736Z,100301.32
2018-10-12T10:18:59.702Z,100305.34
2018-10-12T10:21:28.823Z,100298.38
2018-10-12T10:23:58.316Z,100294.17
2018-10-12T10:26:27.310Z,100299.28
2018-10-12T10:28:56.329Z,100300.56
2018-10-12T10:31:25.359Z,100303.48
2018-10-12T10:33:54.503Z,100302.61
2018-10-12T10:36:24.102Z,100305.82
2018-10-12T10:38:53.131Z,100296.37
2018-10-12T10:41:22.166Z,100306.77
2018-10-12T10:43:51.422Z,100297.60
2018-10-12T10:46:20.526Z,100304.70
2018-10-12T10:48:49.693Z,100305.15
2018-10-12T10:51:18.690Z,100296.23
2018-10-12T10:53:47.785Z,100295.63
2018-10-12T10:56:17.240Z,100306.82
2018-10-12T10:58:46.400Z,100300.17
2018-10-12T11:01:15.420Z,100298.96
2018-10-12T11:03:44.282Z,100296.97
2018-10-12T11:06:13.315Z,100299.89
2018-10-12T11:08:42.232Z,100303.08
2018-10-12T11:11:11.174Z,100294.69
2018-10-12T11:13:40.142Z,100291.25
2018-10-12T11:16:09.185Z,100289.48
2018-10-12T11:18:38.156Z,100286.09
2018-10-12T11:21:08.192Z,100289.88
2018-10-12T11:23:37.082Z,100290.59
2018-10-12T11:26:06.297Z,100296.34
2018-10-12T11:28:35.220Z,100301.19
2018-10-12T11:31:04.354Z,100290.06
2018-10-12T11:33:33.368Z,100291.92
2018-10-12T11:36:02.410Z,100289.37
2018-10-12T11:38:31.521Z,100291.25
2018-10-12T11:41:00.668Z,100284.00
2018-10-12T11:43:35.230Z,100283.94
2018-10-12T11:46:04.059Z,100281.39
2018-10-12T11:48:33.114Z,100276.95
2018-10-12T11:51:02.586Z,100286.76
2018-10-12T11:53:31.650Z,100284.23
2018-10-12T11:56:00.605Z,100286.94
2018-10-12T11:58:29.740Z,100281.06
2018-10-12T12:00:58.872Z,100278.24
2018-10-12T12:03:27.966Z,100274.36
2018-10-12T12:05:56.917Z,100273.80
2018-10-12T12:08:25.912Z,100272.42
2018-10-12T12:10:54.914Z,100272.09
2018-10-12T12:13:24.181Z,100270.42
2018-10-12T12:15:53.807Z,100269.30
2018-10-12T12:18:22.748Z,100272.89
2018-10-12T12:20:51.806Z,100268.75
2018-10-12T12:23:20.671Z,100269.80
2018-10-12T12:25:49.621Z,100274.20
2018-10-12T12:28:18.642Z,100265.66
2018-10-12T12:30:47.553Z,100269.51
2018-10-12T12:33:17.034Z,100271.91
2018-10-12T12:35:46.832Z,100268.83
2018-10-12T12:38:15.803Z,100269.88
2018-10-12T12:40:44.761Z,100267.84
2018-10-12T12:43:13.669Z,100268.23
2018-10-12T12:45:42.563Z,100270.90
2018-10-12T12:48:12.664Z,100268.77
2018-10-12T12:50:41.870Z,100273.82
2018-10-12T12:53:10.733Z,100278.16
2018-10-12T12:55:40.542Z,100275.33
2018-10-12T12:58:09.551Z,100275.85
2018-10-12T13:00:38.754Z,100278.81
2018-10-12T13:03:07.919Z,100273.22
2018-10-12T13:05:37.476Z,100274.86
2018-10-12T13:08:06.554Z,100269.59
2018-10-12T13:10:35.595Z,100274.78
2018-10-12T13:13:04.435Z,100266.20
2018-10-12T13:15:33.770Z,100273.37
2018-10-12T13:18:02.592Z,100267.32
2018-10-12T13:20:31.520Z,100270.91
2018-10-12T13:23:00.579Z,100271.16
2018-10-12T13:25:29.691Z,100270.61
2018-10-12T13:27:59.214Z,100267.47
2018-10-12T13:30:28.302Z,100261.94
2018-10-12T13:32:57.667Z,100264.45
2018-10-12T13:35:27.173Z,100267.58
2018-10-12T13:37:56.122Z,100265.67
2018-10-12T13:40:24.947Z,100270.41
2018-10-12T13:42:54.371Z,100270.91
2018-10-12T13:45:23.375Z,100266.20
2018-10-12T13:47:52.429Z,100269.72
2018-10-12T13:50:22.276Z,100267.40
2018-10-12T13:52:51.211Z,100265.69
2018-10-12T13:55:20.055Z,100264.59
2018-10-12T13:57:49.015Z,100255.22
2018-10-12T14:00:17.951Z,100263.81
2018-10-12T14:02:47.699Z,100268.40
2018-10-12T14:05:17.566Z,100270.41
2018-10-12T14:07:46.601Z,100269.70
2018-10-12T14:10:16.086Z,100271.14
2018-10-12T14:12:45.230Z,100268.19
2018-10-12T14:15:14.193Z,100267.21
2018-10-12T14:17:43.270Z,100268.73
2018-10-12T14:20:12.179Z,100258.34
2018-10-12T14:22:41.093Z,100265.38
2018-10-12T14:25:10.513Z,100262.45
2018-10-12T14:27:39.520Z,100265.70
2018-10-12T14:30:08.719Z,100263.92
2018-10-12T14:32:37.741Z,100269.89
2018-10-12T14:35:06.912Z,100273.40
2018-10-12T14:37:36.074Z,100262.80
2018-10-12T14:40:05.171Z,100272.91
2018-10-12T14:42:34.127Z,100269.79
2018-10-12T14:45:04.311Z,100265.53
2018-10-12T14:47:34.194Z,100267.36
2018-10-12T14:50:03.499Z,100264.80
2018-10-12T14:52:32.438Z,100266.31
2018-10-12T14:55:01.464Z,100273.89
2018-10-12T14:57:30.577Z,100268.82
2018-10-12T14:59:59.612Z,100267.30
2018-10-12T15:02:28.532Z,100260.81
2018-10-12T15:04:57.632Z,100260.70
2018-10-12T15:07:26.661Z,100257.20
2018-10-12T15:09:56.225Z,100261.70
2018-10-12T15:12:25.282Z,100263.19
2018-10-12T15:15:05.341Z,100258.61
2018-10-12T15:17:35.023Z,100268.12
2018-10-12T15:20:04.116Z,100267.64
2018-10-12T15:22:33.260Z,100266.63
2018-10-12T15:25:02.241Z,100269.76
2018-10-12T15:27:31.351Z,100276.45
2018-10-12T15:30:01.276Z,100273.76
2018-10-12T15:32:30.687Z,100276.83
2018-10-12T15:34:59.824Z,100274.13
2018-10-12T15:37:29.444Z,100274.18
2018-10-12T15:39:58.893Z,100279.19
2018-10-12T15:42:27.998Z,100281.43
2018-10-12T15:44:57.299Z,100276.80
2018-10-12T15:47:26.387Z,100289.81
2018-10-12T15:49:55.517Z,100280.50
2018-10-12T15:52:25.387Z,100283.30
2018-10-12T15:54:54.550Z,100285.80
2018-10-12T15:57:28.590Z,100283.65
2018-10-12T15:59:57.411Z,100293.63
2018-10-12T16:02:26.484Z,100289.53
2018-10-12T16:04:55.429Z,100287.64
2018-10-12T16:07:25.296Z,100283.83
2018-10-12T16:09:54.896Z,100288.27
2018-10-12T16:12:24.454Z,100293.25
2018-10-12T16:14:53.859Z,100291.13
2018-10-12T16:17:22.982Z,100297.17
2018-10-12T16:19:52.028Z,100294.17
2018-10-12T16:22:21.252Z,100291.73
2018-10-12T16:25:01.346Z,100296.72
2018-10-12T16:27:30.926Z,100294.82
2018-10-12T16:29:59.980Z,100296.50
2018-10-12T16:32:29.534Z,100288.56
2018-10-12T16:34:58.328Z,100291.34
2018-10-12T16:37:27.497Z,100291.09
2018-10-12T16:39:56.707Z,100292.49
2018-10-12T16:42:25.805Z,100298.56
2018-10-12T16:44:55.162Z,100300.78
2018-10-12T16:47:24.544Z,100310.70
2018-10-12T16:49:53.825Z,100313.20
2018-10-12T16:52:22.787Z,100318.44
2018-10-12T16:54:51.926Z,100314.37
2018-10-12T16:57:25.035Z,100316.83
2018-10-12T16:59:54.615Z,100317.16
2018-10-12T17:02:23.636Z,100322.12
2018-10-12T17:04:52.752Z,100323.20
2018-10-12T17:07:21.804Z,100322.94
2018-10-12T17:09:51.098Z,100323.23
2018-10-12T17:12:20.065Z,100321.36
2018-10-12T17:14:49.209Z,100324.94
2018-10-12T17:17:18.194Z,100331.81
2018-10-12T17:19:47.458Z,100325.26
2018-10-12T17:22:16.297Z,100317.03
2018-10-12T17:24:45.268Z,100329.97
2018-10-12T17:27:14.442Z,100331.89
2018-10-12T17:29:43.348Z,100333.27
2018-10-12T17:32:12.378Z,100333.58
2018-10-12T17:34:41.284Z,100336.59
2018-10-12T17:37:10.975Z,100343.73
2018-10-12T17:39:40.150Z,100347.03
2018-10-12T17:42:16.590Z,100344.28
2018-10-12T17:44:46.197Z,100346.20
2018-10-12T17:47:15.992Z,100348.11
2018-10-12T17:49:45.724Z,100357.19
2018-10-12T17:52:14.969Z,100353.89
2018-10-12T17:54:43.993Z,100351.97
2018-10-12T17:57:13.378Z,100355.81
2018-10-12T17:59:43.178Z,100349.23
2018-10-12T18:02:12.182Z,100350.88
2018-10-12T18:04:41.262Z,100358.00
2018-10-12T18:07:10.445Z,100354.16
2018-10-12T18:09:39.977Z,100357.45
2018-10-12T18:12:09.245Z,100358.55
2018-10-12T18:14:38.472Z,100362.38
2018-10-12T18:17:07.758Z,100368.95
2018-10-12T18:19:36.733Z,100363.20
2018-10-12T18:22:06.214Z,100361.02
2018-10-12T18:24:35.882Z,100361.28
2018-10-12T18:27:05.111Z,100366.19
2018-10-12T18:29:34.139Z,100360.44
2018-10-12T18:32:03.371Z,100363.16
2018-10-12T18:34:32.369Z,100357.69
2018-10-12T18:37:01.477Z,100360.40
2018-10-12T18:39:31.013Z,100363.66
2018-10-12T18:42:00.775Z,100362.00
2018-10-12T18:44:29.754Z,100360.64
2018-10-12T18:46:59.163Z,100358.96
2018-10-12T18:49:28.756Z,100361.41
2018-10-12T18:51:57.783Z,100361.13
2018-10-12T18:54:26.679Z,100365.78
2018-10-12T18:56:56.063Z,100366.33
2018-10-12T18:59:25.085Z,100370.15
2018-10-12T19:02:00.797Z,100368.50
2018-10-12T19:04:30.005Z,100372.03
2018-10-12T19:06:59.316Z,100367.64
2018-10-12T19:09:29.240Z,100372.57
2018-10-12T19:11:58.319Z,100369.52
2018-10-12T19:14:27.408Z,100371.70
2018-10-12T19:16:56.350Z,100363.22
2018-10-12T19:19:25.358Z,100367.83
2018-10-12T19:21:55.212Z,100370.81
2018-10-12T19:24:24.477Z,100366.70
2018-10-12T19:26:53.608Z,100368.61
2018-10-12T19:29:22.690Z,100375.16
2018-10-12T19:31:51.733Z,100372.96
2018-10-12T19:34:21.132Z,100371.30
2018-10-12T19:36:50.260Z,100375.37
2018-10-12T19:39:19.276Z,100373.39
2018-10-12T19:41:48.441Z,100376.95
2018-10-12T19:44:17.450Z,100381.88
2018-10-12T19:46:46.741Z,100374.17
2018-10-12T19:49:16.187Z,100374.98
2018-10-12T19:51:45.522Z,100374.41
2018-10-12T19:54:14.583Z,100371.09
2018-10-12T19:56:43.683Z,100376.02
2018-10-12T19:59:12.847Z,100373.81
2018-10-12T20:01:41.988Z,100382.80
2018-10-12T20:04:11.206Z,100377.58
2018-10-12T20:06:40.206Z,100379.77
2018-10-12T20:09:11.420Z,100380.55
2018-10-12T20:11:41.022Z,100384.11
2018-10-12T20:14:10.156Z,100392.02
2018-10-12T20:16:39.338Z,100394.20
2018-10-12T20:19:08.486Z,100394.45
2018-10-12T20:21:37.866Z,100396.64
2018-10-12T20:24:07.542Z,100399.33
2018-10-12T20:26:36.639Z,100402.87
2018-10-12T20:29:05.616Z,100392.73
2018-10-12T20:31:34.845Z,100396.53
2018-10-12T20:34:04.132Z,100395.69
2018-10-12T20:36:33.218Z,100391.30
2018-10-12T20:39:02.742Z,100395.64
2018-10-12T20:41:32.382Z,100393.72
2018-10-12T20:44:01.538Z,100395.34
2018-10-12T20:46:30.635Z,100393.42
2018-10-12T20:48:59.684Z,100390.69
2018-10-12T20:51:28.676Z,100389.56
2018-10-12T20:53:57.921Z,100393.95
2018-10-12T20:56:26.860Z,100389.55
2018-10-12T20:58:55.792Z,100389.27
2018-10-12T21:01:24.877Z,100392.28
2018-10-12T21:03:53.869Z,100388.13
2018-10-12T21:06:22.941Z,100391.97
2018-10-12T21:08:52.142Z,100397.14
2018-10-12T21:11:21.273Z,100396.85
2018-10-12T21:13:50.581Z,100398.73
2018-10-12T21:16:19.728Z,100398.98
2018-10-12T21:18:48.799Z,100400.34
2018-10-12T21:21:17.886Z,100392.38
2018-10-12T21:23:46.670Z,100393.70
2018-10-12T21:26:15.758Z,100391.75
2018-10-12T21:28:44.712Z,100387.64
2018-10-12T21:31:13.808Z,100385.69
2018-10-12T21:33:43.120Z,100384.59
2018-10-12T21:36:12.947Z,100386.75
2018-10-12T21:38:42.037Z,100383.46
2018-10-12T21:41:11.116Z,100375.25
2018-10-12T21:43:40.649Z,100377.70
2018-10-12T21:46:09.570Z,100380.13
2018-10-12T21:48:39.048Z,100383.94
2018-10-12T21:51:09.084Z,100381.73
2018-10-12T21:53:38.220Z,100383.91
2018-10-12T21:56:07.307Z,100377.03
2018-10-12T21:58:36.132Z,100380.86
2018-10-12T22:01:06.136Z,100377.55
2018-10-12T22:03:36.386Z,100378.36
2018-10-12T22:06:05.639Z,100375.58
2018-10-12T22:08:39.911Z,100381.85
2018-10-12T22:11:08.884Z,100376.09
2018-10-12T22:13:38.951Z,100379.64
2018-10-12T22:16:08.189Z,100373.06
2018-10-12T22:18:37.719Z,100376.33
2018-10-12T22:21:07.124Z,100367.05
2018-10-12T22:23:36.533Z,100366.46
2018-10-12T22:26:05.553Z,100374.92
2018-10-12T22:28:34.854Z,100370.25
2018-10-12T22:31:03.820Z,100377.34
2018-10-12T22:33:32.872Z,100381.14
2018-10-12T22:36:01.842Z,100381.91
2018-10-12T22:38:31.421Z,100381.89
2018-10-12T22:41:00.403Z,100383.50
2018-10-12T22:43:29.433Z,100375.59
2018-10-12T22:45:58.698Z,100377.20
2018-10-12T22:48:28.327Z,100377.47
2018-10-12T22:50:57.260Z,100375.52
2018-10-12T22:53:26.182Z,100369.22
2018-10-12T22:55:55.142Z,100372.72
2018-10-12T22:58:24.091Z,100370.80
2018-10-12T23:00:53.059Z,100370.51
2018-10-12T23:03:21.984Z,100367.76
2018-10-12T23:05:51.386Z,100368.00
2018-10-12T23:08:20.439Z,100367.44
2018-10-12T23:10:49.364Z,100374.77
2018-10-12T23:13:18.462Z,100359.19
2018-10-12T23:15:50.288Z,100369.24
2018-10-12T23:18:19.319Z,100366.49
2018-10-12T23:20:48.297Z,100365.08
2018-10-12T23:23:17.347Z,100363.45
2018-10-12T23:25:46.758Z,100373.77
2018-10-12T23:28:15.885Z,100372.34
2018-10-12T23:30:44.912Z,100371.52
2018-10-12T23:33:24.840Z,100376.41
2018-10-12T23:35:53.955Z,100372.80
2018-10-12T23:38:22.930Z,100374.67
2018-10-12T23:40:52.350Z,100379.03
2018-10-12T23:43:21.327Z,100377.08
2018-10-12T23:45:50.418Z,100379.78
2018-10-12T23:48:19.895Z,100375.05
2018-10-12T23:50:49.044Z,100377.80
2018-10-12T23:53:18.450Z,100376.41
2018-10-12T23:55:47.530Z,100382.39
2018-10-12T23:58:16.740Z,100379.91
